Time;durP1;ratioP1;P1;durP2;ratioP2;P2;SDS_P1;SDS_P2;PMS_P1;PMS_P2;Temp;Humidity;BMP_temperature;BMP_pressure;BME280_temperature;BME280_humidity;BME280_pressure;Samples;Min_cycle;Max_cycle;Signal;HPM_P1;HPM_P2
2022/06/27 00:00:01;;;;;;;;;;;;;;;-140.72;100.00;52496.38;5030068;28;20314;-69
2022/06/27 00:02:26;;;;;;;;;;;;;;;-140.72;100.00;52461.88;5032339;28;20447;-69
2022/06/27 00:04:52;;;;;;;;;;;;;;;-140.72;100.00;52488.25;5033397;28;19921;-69
2022/06/27 00:07:18;;;;;;;;;;;;;;;-140.72;100.00;52514.63;5033371;28;20302;-69
2022/06/27 00:09:43;;;;;;;;;;;;;;;-140.72;100.00;52486.22;5032943;28;19917;-70
2022/06/27 00:12:09;;;;;;;;;;;;;;;-140.72;100.00;52522.75;5033254;28;19928;-69
2022/06/27 00:14:35;;;;;;;;;;;;;;;-140.72;100.00;52486.22;5033359;28;19937;-70
2022/06/27 00:17:00;;;;;;;;;;;;;;;-140.72;100.00;52480.16;5033226;28;19951;-69
2022/06/27 00:19:25;;;;;;;;;;;;;;;-140.72;100.00;52486.22;5033210;28;19917;-70
2022/06/27 00:21:50;;;;;;;;;;;;;;;-140.72;100.00;52474.06;5033208;28;19936;-69
2022/06/27 00:24:15;;;;;;;;;;;;;;;-140.72;100.00;52480.16;5033223;28;19928;-69
2022/06/27 00:26:41;;;;;;;;;;;;;;;-140.72;100.00;52502.47;5033183;28;19917;-70
2022/06/27 00:29:06;;;;;;;;;;;;;;;-140.72;100.00;52480.16;5033922;28;19964;-70
2022/06/27 00:31:31;;;;;;;;;;;;;;;-140.72;100.00;52496.38;5037127;28;19986;-70
2022/06/27 00:33:56;;;;;;;;;;;;;;;-140.72;100.00;52488.25;5062779;28;19975;-69
2022/06/27 00:36:22;;;;;;;;;;;;;;;-140.72;100.00;52492.31;5036815;28;20458;-69
2022/06/27 00:38:47;;;;;;;;;;;;;;;-140.72;100.00;52500.44;5037104;28;20302;-70
2022/06/27 00:41:12;;;;;;;;;;;;;;;-140.72;100.00;52496.38;5037109;28;20370;-69
2022/06/27 00:43:37;;;;;;;;;;;;;;;-140.72;100.00;52506.53;5036707;28;20298;-69
2022/06/27 00:46:03;;;;;;;;;;;;;;;-140.72;100.00;52504.50;5036822;28;19917;-69
2022/06/27 00:48:28;;;;;;;;;;;;;;;-140.72;100.00;52508.56;5036922;28;19960;-70
2022/06/27 00:50:54;;;;;;;;;;;;;;;-140.72;100.00;52498.41;5037032;28;19921;-70
2022/06/27 00:53:19;;;;;;;;;;;;;;;-140.72;100.00;52472.03;5036903;28;19924;-70
2022/06/27 00:55:44;;;;;;;;;;;;;;;-140.72;100.00;52490.28;5036851;28;19929;-70
2022/06/27 00:58:10;;;;;;;;;;;;;;;-140.72;100.00;52522.75;5036657;28;19924;-70
2022/06/27 01:00:36;;;;;;;;;;;;;;;-140.72;100.00;52506.53;5036734;28;19917;-70
2022/06/27 01:03:01;;;;;;;;;;;;;;;-140.72;100.00;52474.06;5036620;28;19924;-70
2022/06/27 01:05:26;;;;;;;;;;;;;;;-140.72;100.00;52500.44;5036804;28;20328;-70
2022/06/27 01:07:52;;;;;;;;;;;;;;;-140.72;100.00;52472.03;5036595;28;19918;-70
2022/06/27 01:10:17;;;;;;;;;;;;;;;-140.72;100.00;52520.72;5036566;28;20373;-69
2022/06/27 01:12:42;;;;;;;;;;;;;;;-140.72;100.00;52484.19;5036506;28;19918;-70
2022/06/27 01:15:09;;;;;;;;;;;;;;;-140.72;100.00;52484.19;5054955;28;19997;-69
2022/06/27 01:17:34;;;;;;;;;;;;;;;-140.72;100.00;52455.78;5036832;28;19940;-70
2022/06/27 01:20:00;;;;;;;;;;;;;;;-140.72;100.00;52490.28;5036376;28;20363;-70
2022/06/27 01:25:51;;;;;;;;;;;;;;;-140.72;100.00;52526.81;5035577;28;19987;-69
2022/06/27 01:28:17;;;;;;;;;;;;;;;-140.72;100.00;52478.13;5023118;28;20024;-69
2022/06/27 01:30:43;;;;;;;;;;;;;;;-140.72;100.00;52500.44;5036221;28;19917;-70
2022/06/27 01:33:08;;;;;;;;;;;;;;;-140.72;100.00;52472.03;5035981;28;20000;-70
2022/06/27 01:35:33;;;;;;;;;;;;;;;-140.72;100.00;52488.25;5040518;28;19957;-70
2022/06/27 01:37:58;;;;;;;;;;;;;;;-140.72;100.00;52488.25;5035610;28;19960;-69
2022/06/27 01:40:24;;;;;;;;;;;;;;;-140.72;100.00;52449.72;5035174;28;20355;-69
2022/06/27 01:42:49;;;;;;;;;;;;;;;-140.72;100.00;52496.38;5035046;28;19924;-69
2022/06/27 01:45:14;;;;;;;;;;;;;;;-140.72;100.00;52478.13;5035526;28;19936;-69
2022/06/27 01:47:40;;;;;;;;;;;;;;;-140.72;100.00;52524.78;5067987;28;19928;-69
2022/06/27 01:50:05;;;;;;;;;;;;;;;-140.72;100.00;52498.41;5035546;28;19924;-69
2022/06/27 01:52:31;;;;;;;;;;;;;;;-140.72;100.00;52480.16;5035476;28;19918;-70
2022/06/27 01:54:57;;;;;;;;;;;;;;;-140.72;100.00;52524.78;5035605;28;19928;-69
2022/06/27 01:57:22;;;;;;;;;;;;;;;-140.72;100.00;52528.84;5035636;28;19917;-70
2022/06/27 01:59:49;;;;;;;;;;;;;;;-140.72;100.00;52508.56;5035882;28;19921;-70
2022/06/27 02:02:14;;;;;;;;;;;;;;;-140.72;100.00;52516.66;5035594;28;19924;-70
2022/06/27 02:04:40;;;;;;;;;;;;;;;-140.72;100.00;52488.25;5035370;28;19921;-69
2022/06/27 02:07:06;;;;;;;;;;;;;;;-140.72;100.00;52472.03;5035239;28;20344;-69
2022/06/27 02:09:31;;;;;;;;;;;;;;;-140.72;100.00;52506.53;5035072;28;19917;-69
2022/06/27 02:11:57;;;;;;;;;;;;;;;-140.72;100.00;52498.41;5035100;28;19917;-69
2022/06/27 02:14:23;;;;;;;;;;;;;;;-140.72;100.00;52474.06;5066122;28;20007;-69
2022/06/27 02:16:48;;;;;;;;;;;;;;;-140.72;100.00;52504.50;5035178;28;20390;-70
2022/06/27 02:19:15;;;;;;;;;;;;;;;-140.72;100.00;52488.25;5034683;28;19924;-70
2022/06/27 02:21:41;;;;;;;;;;;;;;;-140.72;100.00;52508.56;5034835;28;19917;-69
2022/06/27 02:24:07;;;;;;;;;;;;;;;-140.72;100.00;52463.91;5035184;28;20350;-69
2022/06/27 02:26:32;;;;;;;;;;;;;;;-140.72;100.00;52502.47;5035267;28;19918;-70
2022/06/27 02:28:58;;;;;;;;;;;;;;;-140.72;100.00;52512.59;5035165;28;19917;-69
2022/06/27 02:31:24;;;;;;;;;;;;;;;-140.72;100.00;52514.63;5035002;28;19917;-69
2022/06/27 02:33:50;;;;;;;;;;;;;;;-140.72;100.00;52480.16;5083132;22;19935;-79
2022/06/27 02:36:16;;;;;;;;;;;;;;;-140.72;100.00;52526.81;5074136;28;20474;-79
2022/06/27 02:38:44;;;;;;;;;;;;;;;-140.72;100.00;52502.47;5087969;28;20434;-79
2022/06/27 02:41:14;;;;;;;;;;;;;;;-140.72;100.00;52494.34;5086770;28;20007;-79
2022/06/27 02:43:41;;;;;;;;;;;;;;;-140.72;100.00;52459.84;5093193;28;19912;-79
2022/06/27 02:46:08;;;;;;;;;;;;;;;-140.72;100.00;52510.59;5086991;28;20359;-79
2022/06/27 02:48:35;;;;;;;;;;;;;;;-140.72;100.00;52488.25;5093365;28;19969;-79
2022/06/27 02:51:06;;;;;;;;;;;;;;;-140.72;100.00;52484.19;5089353;28;19916;-79
2022/06/27 02:53:54;;;;;;;;;;;;;;;-140.72;100.00;52539.00;5076865;28;20007;-79
2022/06/27 02:56:25;;;;;;;;;;;;;;;-140.72;100.00;52539.00;5085304;28;20362;-79
2022/06/27 02:59:01;;;;;;;;;;;;;;;-140.72;100.00;52490.28;5072899;28;19916;-79
2022/06/27 03:01:28;;;;;;;;;;;;;;;-140.72;100.00;52541.03;5075436;28;19923;-79
2022/06/27 03:03:54;;;;;;;;;;;;;;;-140.72;100.00;52524.78;5093068;28;19920;-79
2022/06/27 03:06:19;;;;;;;;;;;;;;;-140.72;100.00;52498.41;5091799;28;19970;-79
2022/06/27 03:08:46;;;;;;;;;;;;;;;-140.72;100.00;52488.25;5078066;28;19916;-79
2022/06/27 03:11:13;;;;;;;;;;;;;;;-140.72;100.00;52504.50;5092009;28;19992;-79
2022/06/27 03:13:38;;;;;;;;;;;;;;;-140.72;100.00;52486.22;5072485;28;19933;-79
2022/06/27 03:16:04;;;;;;;;;;;;;;;-140.72;100.00;52524.78;5072797;28;20087;-79
2022/06/27 03:18:29;;;;;;;;;;;;;;;-140.72;100.00;52524.78;5072248;28;19923;-79
2022/06/27 03:20:54;;;;;;;;;;;;;;;-140.72;100.00;52526.81;5079865;28;19962;-78
2022/06/27 03:23:19;;;;;;;;;;;;;;;-140.72;100.00;52500.44;5092674;28;20442;-79
2022/06/27 03:25:45;;;;;;;;;;;;;;;-140.72;100.00;52500.44;5079073;28;19923;-79
2022/06/27 03:28:10;;;;;;;;;;;;;;;-140.72;100.00;52504.50;5080698;28;19982;-79
2022/06/27 03:30:35;;;;;;;;;;;;;;;-140.72;100.00;52534.94;5091269;28;19912;-79
2022/06/27 03:33:01;;;;;;;;;;;;;;;-140.72;100.00;52510.59;5083635;28;19959;-79
2022/06/27 03:35:26;;;;;;;;;;;;;;;-140.72;100.00;52528.84;5082931;28;20117;-79
2022/06/27 03:37:52;;;;;;;;;;;;;;;-140.72;100.00;52541.03;5079684;28;19913;-79
2022/06/27 03:40:17;;;;;;;;;;;;;;;-140.72;100.00;52516.66;5088040;28;19920;-79
2022/06/27 03:42:42;;;;;;;;;;;;;;;-140.72;100.00;52520.72;5085087;28;19966;-79
2022/06/27 03:45:08;;;;;;;;;;;;;;;-140.72;100.00;52528.84;5086150;28;19972;-80
2022/06/27 03:47:44;;;;;;;;;;;;;;;-140.72;100.00;52516.66;5081069;28;19950;-79
2022/06/27 03:50:09;;;;;;;;;;;;;;;-140.72;100.00;52512.59;5080803;28;19913;-79
2022/06/27 03:52:34;;;;;;;;;;;;;;;-140.72;100.00;52504.50;5081359;28;19916;-79
2022/06/27 03:54:59;;;;;;;;;;;;;;;-140.72;100.00;52496.38;5087835;28;19983;-80
2022/06/27 03:57:25;;;;;;;;;;;;;;;-140.72;100.00;52488.25;5091176;28;19920;-79
2022/06/27 03:59:50;;;;;;;;;;;;;;;-140.72;100.00;52530.88;5090289;28;19916;-79
2022/06/27 04:02:16;;;;;;;;;;;;;;;-140.72;100.00;52494.34;5092159;28;19912;-79
2022/06/27 04:04:41;;;;;;;;;;;;;;;-140.72;100.00;52490.28;5086194;28;19921;-80
2022/06/27 04:07:06;;;;;;;;;;;;;;;-140.72;100.00;52496.38;5071674;28;20010;-79
2022/06/27 04:09:32;;;;;;;;;;;;;;;-140.72;100.00;52522.75;5071652;28;19916;-80
2022/06/27 04:11:57;;;;;;;;;;;;;;;-140.72;100.00;52467.97;5083548;28;19920;-79
2022/06/27 04:14:22;;;;;;;;;;;;;;;-140.72;100.00;52476.09;5087058;28;19956;-80
2022/06/27 04:16:47;;;;;;;;;;;;;;;-140.72;100.00;52451.72;5083175;28;19985;-80
2022/06/27 04:19:13;;;;;;;;;;;;;;;-140.72;100.00;52502.47;5079402;28;20002;-80
2022/06/27 04:21:38;;;;;;;;;;;;;;;-140.72;100.00;52451.72;5096981;28;20358;-81
2022/06/27 04:24:03;;;;;;;;;;;;;;;-140.72;100.00;52522.75;5102372;28;19999;-81
2022/06/27 04:26:29;;;;;;;;;;;;;;;-140.72;100.00;52512.59;5109964;28;19935;-85
2022/06/27 04:28:54;;;;;;;;;;;;;;;-140.72;100.00;52470.00;5108460;28;19920;-84
2022/06/27 04:31:20;;;;;;;;;;;;;;;-140.72;100.00;52496.38;5091906;28;19916;-84
2022/06/27 04:33:45;;;;;;;;;;;;;;;-140.72;100.00;52482.16;5095415;28;20000;-83
2022/06/27 04:36:11;;;;;;;;;;;;;;;-140.72;100.00;52508.56;5083872;28;19916;-87
2022/06/27 04:38:36;;;;;;;;;;;;;;;-140.72;100.00;52534.94;5093123;28;19922;-86
2022/06/27 04:41:01;;;;;;;;;;;;;;;-140.72;100.00;52472.03;5092711;28;19924;-85
2022/06/27 04:43:27;;;;;;;;;;;;;;;-140.72;100.00;52480.16;5083569;28;19920;-90
2022/06/27 04:45:53;;;;;;;;;;;;;;;-140.72;100.00;52476.09;5074575;28;19959;-89
2022/06/27 04:48:18;;;;;;;;;;;;;;;-140.72;100.00;52486.22;5092320;28;19923;-85
2022/06/27 04:50:43;;;;;;;;;;;;;;;-140.72;100.00;52502.47;5076026;28;19948;-89
2022/06/27 04:53:09;;;;;;;;;;;;;;;-140.72;100.00;52488.25;5072377;28;19916;-89
2022/06/27 04:55:34;;;;;;;;;;;;;;;-140.72;100.00;52474.06;5088447;28;19948;-89
2022/06/27 04:58:00;;;;;;;;;;;;;;;-140.72;100.00;52459.84;5087845;28;19924;-88
2022/06/27 05:00:25;;;;;;;;;;;;;;;-140.72;100.00;52524.78;5078325;28;19973;-85
2022/06/27 05:02:50;;;;;;;;;;;;;;;-140.72;100.00;52484.19;5082511;28;19975;-85
2022/06/27 05:05:15;;;;;;;;;;;;;;;-140.72;100.00;52518.69;5078042;28;20275;-87
2022/06/27 05:07:43;;;;;;;;;;;;;;;-140.72;100.00;52470.00;5080768;28;19920;-91
2022/06/27 05:10:09;;;;;;;;;;;;;;;-140.72;100.00;52508.56;5080100;28;19927;-88
2022/06/27 05:12:34;;;;;;;;;;;;;;;-140.72;100.00;52504.50;5084282;28;20275;-91
2022/06/27 05:15:00;;;;;;;;;;;;;;;-140.72;100.00;52472.03;5077493;28;19916;-85
2022/06/27 05:17:25;;;;;;;;;;;;;;;-140.72;100.00;52502.47;5092834;28;20027;-86
2022/06/27 05:19:50;;;;;;;;;;;;;;;-140.72;100.00;52482.16;5085289;28;19939;-84
2022/06/27 05:22:16;;;;;;;;;;;;;;;-140.72;100.00;52467.97;5085192;28;19974;-87
2022/06/27 05:24:41;;;;;;;;;;;;;;;-140.72;100.00;52512.59;5085090;28;20023;-88
2022/06/27 05:27:08;;;;;;;;;;;;;;;-140.72;100.00;52498.41;5085095;28;20003;-81
2022/06/27 05:29:33;;;;;;;;;;;;;;;-140.72;100.00;52490.28;5082929;28;19923;-82
2022/06/27 05:31:58;;;;;;;;;;;;;;;-140.72;100.00;52508.56;5082341;28;19916;-82
2022/06/27 05:34:24;;;;;;;;;;;;;;;-140.72;100.00;52512.59;5077788;28;19920;-82
2022/06/27 05:36:49;;;;;;;;;;;;;;;-140.72;100.00;52478.13;5088819;28;19916;-82
2022/06/27 05:39:14;;;;;;;;;;;;;;;-140.72;100.00;52484.19;5080224;28;19912;-82
2022/06/27 05:41:40;;;;;;;;;;;;;;;-140.72;100.00;52478.13;5084948;28;20013;-82
2022/06/27 05:44:05;;;;;;;;;;;;;;;-140.72;100.00;52488.25;5081419;28;19916;-81
2022/06/27 05:46:32;;;;;;;;;;;;;;;-140.72;100.00;52447.69;5083627;28;19916;-82
2022/06/27 05:48:57;;;;;;;;;;;;;;;-140.72;100.00;52453.75;5085059;28;19960;-82
2022/06/27 05:51:23;;;;;;;;;;;;;;;-140.72;100.00;52465.94;5090747;28;19993;-82
2022/06/27 05:53:49;;;;;;;;;;;;;;;-140.72;100.00;52472.03;5094159;28;19955;-82
2022/06/27 05:56:15;;;;;;;;;;;;;;;-140.72;100.00;52439.56;5085775;28;19920;-82
2022/06/27 05:58:41;;;;;;;;;;;;;;;-140.72;100.00;52488.25;5084267;28;20347;-82
2022/06/27 06:01:09;;;;;;;;;;;;;;;-140.72;100.00;52463.91;5086758;28;19920;-84
2022/06/27 06:03:34;;;;;;;;;;;;;;;-140.72;100.00;52459.84;5083532;28;19928;-82
2022/06/27 06:06:00;;;;;;;;;;;;;;;-140.72;100.00;52494.34;5086446;28;19916;-85
2022/06/27 06:08:26;;;;;;;;;;;;;;;-140.72;100.00;52453.75;5092521;28;19916;-82
2022/06/27 06:10:51;;;;;;;;;;;;;;;-140.72;100.00;52484.19;5091708;28;20371;-84
2022/06/27 06:13:17;;;;;;;;;;;;;;;-140.72;100.00;52465.94;5091854;28;19931;-84
2022/06/27 06:15:42;;;;;;;;;;;;;;;-140.72;100.00;52411.16;5092106;28;19917;-82
2022/06/27 06:18:08;;;;;;;;;;;;;;;-140.72;100.00;52480.16;5092148;28;19931;-83
2022/06/27 06:20:33;;;;;;;;;;;;;;;-140.72;100.00;52459.84;5093189;28;19920;-82
2022/06/27 06:22:59;;;;;;;;;;;;;;;-140.72;100.00;52415.22;5092288;28;20282;-82
2022/06/27 06:25:25;;;;;;;;;;;;;;;-140.72;100.00;52429.41;5089249;28;20666;-82
2022/06/27 06:27:51;;;;;;;;;;;;;;;-140.72;100.00;52459.84;5092321;28;19916;-82
2022/06/27 06:30:19;;;;;;;;;;;;;;;-140.72;100.00;52419.28;5080989;28;19917;-82
2022/06/27 06:32:45;;;;;;;;;;;;;;;-140.72;100.00;52488.25;5088473;28;19935;-82
2022/06/27 06:35:10;;;;;;;;;;;;;;;-140.72;100.00;52419.28;5088789;28;20014;-82
2022/06/27 06:37:39;;;;;;;;;;;;;;;-140.72;100.00;52439.56;5091714;28;20297;-82
2022/06/27 06:40:05;;;;;;;;;;;;;;;-140.72;100.00;52451.72;5089620;28;19916;-82
2022/06/27 06:42:30;;;;;;;;;;;;;;;-140.72;100.00;52419.28;5082590;28;20014;-83
2022/06/27 06:44:55;;;;;;;;;;;;;;;-140.72;100.00;52461.88;5086237;28;19962;-82
2022/06/27 06:47:22;;;;;;;;;;;;;;;-140.72;100.00;52451.72;5086014;28;19982;-82
2022/06/27 06:49:48;;;;;;;;;;;;;;;-140.72;100.00;52474.06;5088700;28;20019;-82
2022/06/27 06:52:13;;;;;;;;;;;;;;;-140.72;100.00;52459.84;5089339;28;19960;-82
2022/06/27 06:54:41;;;;;;;;;;;;;;;-140.72;100.00;52413.19;5077321;28;19938;-83
2022/06/27 06:57:09;;;;;;;;;;;;;;;-140.72;100.00;52417.25;5092780;28;19922;-81
2022/06/27 06:59:35;;;;;;;;;;;;;;;-140.72;100.00;52417.25;5075741;28;19960;-81
2022/06/27 07:02:01;;;;;;;;;;;;;;;-140.72;100.00;52447.69;5073355;28;20217;-81
2022/06/27 07:04:26;;;;;;;;;;;;;;;-140.72;100.00;52439.56;5087130;28;19924;-81
2022/06/27 07:06:53;;;;;;;;;;;;;;;-140.72;100.00;52461.88;5083208;28;19916;-82
2022/06/27 07:09:18;;;;;;;;;;;;;;;-140.72;100.00;52413.19;5089238;28;19916;-81
2022/06/27 07:11:45;;;;;;;;;;;;;;;-140.72;100.00;52425.34;5081625;28;19922;-81
2022/06/27 07:14:10;;;;;;;;;;;;;;;-140.72;100.00;52447.69;5078480;28;19916;-81
2022/06/27 07:16:36;;;;;;;;;;;;;;;-140.72;100.00;52451.72;5082048;28;19922;-81
2022/06/27 07:19:02;;;;;;;;;;;;;;;-140.72;100.00;52429.41;5075966;28;19943;-81
2022/06/27 07:21:28;;;;;;;;;;;;;;;-140.72;100.00;52453.75;5081791;28;19920;-82
2022/06/27 07:23:55;;;;;;;;;;;;;;;-140.72;100.00;52411.16;5072628;28;19928;-83
2022/06/27 07:26:21;;;;;;;;;;;;;;;-140.72;100.00;52415.22;5078637;28;19920;-82
2022/06/27 07:28:48;;;;;;;;;;;;;;;-140.72;100.00;52474.06;5075951;28;19966;-80
2022/06/27 07:31:14;;;;;;;;;;;;;;;-140.72;100.00;52411.16;5078656;28;20282;-80
2022/06/27 07:33:39;;;;;;;;;;;;;;;-140.72;100.00;52445.66;5081514;28;20019;-82
2022/06/27 07:36:05;;;;;;;;;;;;;;;-140.72;100.00;52451.72;5081967;28;19924;-83
2022/06/27 07:38:32;;;;;;;;;;;;;;;-140.72;100.00;52443.63;5075741;28;19931;-84
2022/06/27 07:40:57;;;;;;;;;;;;;;;-140.72;100.00;52467.97;5083429;28;20221;-83
2022/06/27 07:43:23;;;;;;;;;;;;;;;-140.72;100.00;52419.28;5074115;28;20011;-83
2022/06/27 07:45:48;;;;;;;;;;;;;;;-140.72;100.00;52431.44;5078444;28;19924;-83
2022/06/27 07:48:16;;;;;;;;;;;;;;;-140.72;100.00;52455.78;5077586;28;20423;-84
2022/06/27 07:50:41;;;;;;;;;;;;;;;-140.72;100.00;52467.97;5081243;28;20019;-84
2022/06/27 07:53:12;;;;;;;;;;;;;;;-140.72;100.00;52439.56;5078354;28;19972;-83
2022/06/27 07:55:39;;;;;;;;;;;;;;;-140.72;100.00;52445.66;5074888;28;19924;-84
2022/06/27 07:58:06;;;;;;;;;;;;;;;-140.72;100.00;52398.97;5075321;28;19920;-83
2022/06/27 08:00:31;;;;;;;;;;;;;;;-140.72;100.00;52443.63;5084046;28;20099;-84
2022/06/27 08:02:56;;;;;;;;;;;;;;;-140.72;100.00;52423.31;5079326;28;20282;-84
2022/06/27 08:05:21;;;;;;;;;;;;;;;-140.72;100.00;52409.13;5086885;28;19916;-84
2022/06/27 08:07:47;;;;;;;;;;;;;;;-140.72;100.00;52423.31;5078536;28;19943;-84
2022/06/27 08:10:12;;;;;;;;;;;;;;;-140.72;100.00;52409.13;5078170;28;20003;-84
2022/06/27 08:12:37;;;;;;;;;;;;;;;-140.72;100.00;52445.66;5079132;28;19981;-84
2022/06/27 08:15:03;;;;;;;;;;;;;;;-140.72;100.00;52439.56;5098451;28;19916;-84
2022/06/27 08:17:29;;;;;;;;;;;;;;;-140.72;100.00;52398.97;5092763;28;20066;-84
2022/06/27 08:19:54;;;;;;;;;;;;;;;-140.72;100.00;52407.09;5083212;28;19931;-84
2022/06/27 08:22:24;;;;;;;;;;;;;;;-140.72;100.00;52431.44;5084428;28;20363;-86
2022/06/27 08:24:49;;;;;;;;;;;;;;;-140.72;100.00;52392.88;5075097;28;19921;-83
2022/06/27 08:27:14;;;;;;;;;;;;;;;-140.72;100.00;52401.00;5080328;28;20006;-83
2022/06/27 08:29:41;;;;;;;;;;;;;;;-140.72;100.00;52413.19;5081733;28;19924;-84
2022/06/27 08:32:06;;;;;;;;;;;;;;;-140.72;100.00;52421.28;5074462;28;19924;-85
2022/06/27 08:34:33;;;;;;;;;;;;;;;-140.72;100.00;52396.94;5074579;28;19974;-84
2022/06/27 08:36:58;;;;;;;;;;;;;;;-140.72;100.00;52382.75;5074343;28;19920;-84
2022/06/27 08:39:24;;;;;;;;;;;;;;;-140.72;100.00;52407.09;5083108;28;20348;-84
2022/06/27 08:41:50;;;;;;;;;;;;;;;-140.72;100.00;52403.03;5073434;28;19928;-83
2022/06/27 08:44:16;;;;;;;;;;;;;;;-140.72;100.00;52392.88;5080847;28;19921;-84
2022/06/27 08:46:45;;;;;;;;;;;;;;;-140.72;100.00;52372.59;5077938;28;20386;-84
2022/06/27 08:49:12;;;;;;;;;;;;;;;-140.72;100.00;52378.69;5082700;28;19931;-84
2022/06/27 08:51:37;;;;;;;;;;;;;;;-140.72;100.00;52394.91;5083345;28;20359;-84
2022/06/27 08:54:06;;;;;;;;;;;;;;;-140.72;100.00;52403.03;5085823;28;19917;-84
2022/06/27 08:56:32;;;;;;;;;;;;;;;-140.72;100.00;52401.00;5084502;28;19983;-85
2022/06/27 08:58:59;;;;;;;;;;;;;;;-140.72;100.00;52413.19;5089483;28;19958;-84
2022/06/27 09:01:27;;;;;;;;;;;;;;;-140.72;100.00;52394.91;5083323;28;19952;-84
2022/06/27 09:04:00;;;;;;;;;;;;;;;-140.72;100.00;52394.91;5092934;28;19917;-84
2022/06/27 09:06:46;;;;;;;;;;;;;;;-140.72;100.00;52396.94;5089141;28;19916;-84
2022/06/27 09:09:14;;;;;;;;;;;;;;;-140.72;100.00;52425.34;5074558;28;19945;-84
2022/06/27 09:11:41;;;;;;;;;;;;;;;-140.72;100.00;52413.19;5097401;28;20020;-83
2022/06/27 09:14:07;;;;;;;;;;;;;;;-140.72;100.00;52419.28;5086588;28;19985;-83
2022/06/27 09:16:33;;;;;;;;;;;;;;;-140.72;100.00;52392.88;5083841;28;20004;-83
2022/06/27 09:18:58;;;;;;;;;;;;;;;-140.72;100.00;52390.84;5077577;28;19916;-83
2022/06/27 09:21:25;;;;;;;;;;;;;;;-140.72;100.00;52386.81;5081081;28;20257;-84
2022/06/27 09:23:54;;;;;;;;;;;;;;;-140.72;100.00;52429.41;5078339;28;20002;-83
2022/06/27 09:26:20;;;;;;;;;;;;;;;-140.72;100.00;52376.66;5080065;28;20190;-84
2022/06/27 09:29:04;;;;;;;;;;;;;;;-140.72;100.00;52382.75;5079159;28;20389;-84
2022/06/27 09:31:31;;;;;;;;;;;;;;;-140.72;100.00;52368.53;5080912;28;19916;-84
2022/06/27 09:33:59;;;;;;;;;;;;;;;-140.72;100.00;52342.16;5082391;28;19927;-85
2022/06/27 09:36:26;;;;;;;;;;;;;;;-140.72;100.00;52327.97;5083788;28;19951;-84
2022/06/27 09:38:52;;;;;;;;;;;;;;;-140.72;100.00;52362.44;5083711;28;19924;-84
2022/06/27 09:41:17;;;;;;;;;;;;;;;-140.72;100.00;52358.41;5085678;28;20291;-84
2022/06/27 09:43:46;;;;;;;;;;;;;;;-140.72;100.00;52360.44;5087464;28;19916;-84
2022/06/27 09:46:13;;;;;;;;;;;;;;;-140.72;100.00;52362.44;5077504;28;19931;-82
2022/06/27 09:48:40;;;;;;;;;;;;;;;-140.72;100.00;52380.72;5073988;28;19924;-81
2022/06/27 09:51:06;;;;;;;;;;;;;;;-140.72;100.00;52368.53;5074079;28;19935;-82
2022/06/27 09:53:31;;;;;;;;;;;;;;;-140.72;100.00;52386.81;5076279;28;19917;-82
2022/06/27 09:55:58;;;;;;;;;;;;;;;-140.72;100.00;52362.44;5083336;28;19931;-82
2022/06/27 09:58:25;;;;;;;;;;;;;;;-140.72;100.00;52366.50;5089676;28;19920;-83
2022/06/27 10:00:50;;;;;;;;;;;;;;;-140.72;100.00;52386.81;5088623;28;19916;-83
2022/06/27 10:03:16;;;;;;;;;;;;;;;-140.72;100.00;52340.13;5085422;28;19942;-83
2022/06/27 10:05:43;;;;;;;;;;;;;;;-140.72;100.00;52348.25;5082122;28;19916;-84
2022/06/27 10:08:10;;;;;;;;;;;;;;;-140.72;100.00;52370.56;5087463;28;19924;-83
2022/06/27 10:11:14;;;;;;;;;;;;;;;-140.72;100.00;52398.97;5081039;28;19934;-83
2022/06/27 10:13:42;;;;;;;;;;;;;;;-140.72;100.00;52378.69;5007855;28;19944;-83
2022/06/27 10:16:12;;;;;;;;;;;;;;;-140.72;100.00;52388.84;5002591;28;20022;-83
2022/06/27 10:18:52;;;;;;;;;;;;;;;-140.72;100.00;52388.84;5038697;28;19924;-83
2022/06/27 10:21:24;;;;;;;;;;;;;;;-140.72;100.00;52362.44;5085078;28;19924;-83
2022/06/27 10:24:09;;;;;;;;;;;;;;;-140.72;100.00;52352.31;5080048;28;19916;-83
2022/06/27 10:26:41;;;;;;;;;;;;;;;-140.72;100.00;52348.25;5076527;28;19924;-82
2022/06/27 10:29:25;;;;;;;;;;;;;;;-140.72;100.00;52388.84;5078523;28;19928;-83
2022/06/27 10:31:50;;;;;;;;;;;;;;;-140.72;100.00;52407.09;5079060;28;19961;-84
2022/06/27 10:34:15;;;;;;;;;;;;;;;-140.72;100.00;52374.63;5080119;28;19924;-84
2022/06/27 10:36:43;;;;;;;;;;;;;;;-140.72;100.00;52396.94;5082946;28;19920;-83
2022/06/27 10:39:19;;;;;;;;;;;;;;;-140.72;100.00;52411.16;5082526;28;19931;-83
2022/06/27 10:41:45;;;;;;;;;;;;;;;-140.72;100.00;52382.75;5082393;28;19924;-83
2022/06/27 10:44:30;;;;;;;;;;;;;;;-140.72;100.00;52370.56;5085570;28;20688;-84
2022/06/27 10:46:56;;;;;;;;;;;;;;;-140.72;100.00;52360.44;5079769;28;19916;-83
2022/06/27 10:49:22;;;;;;;;;;;;;;;-140.72;100.00;52382.75;5077713;28;19923;-83
2022/06/27 10:51:47;;;;;;;;;;;;;;;-140.72;100.00;52340.13;5075629;28;19916;-83
2022/06/27 10:54:13;;;;;;;;;;;;;;;-140.72;100.00;52407.09;5080749;28;20070;-83
2022/06/27 10:56:49;;;;;;;;;;;;;;;-140.72;100.00;52356.38;5078708;28;19939;-83
2022/06/27 10:59:14;;;;;;;;;;;;;;;-140.72;100.00;52431.44;5080664;28;19913;-83
2022/06/27 11:01:42;;;;;;;;;;;;;;;-140.72;100.00;52358.41;5079104;28;19929;-83
2022/06/27 11:04:23;;;;;;;;;;;;;;;-140.72;100.00;52350.28;5078905;28;19927;-82
2022/06/27 11:06:56;;;;;;;;;;;;;;;-140.72;100.00;52370.56;5082609;28;19921;-82
2022/06/27 11:09:33;;;;;;;;;;;;;;;-140.72;100.00;52366.50;5075589;28;19916;-82
2022/06/27 11:11:59;;;;;;;;;;;;;;;-140.72;100.00;52356.38;5075054;28;20291;-83
2022/06/27 11:14:25;;;;;;;;;;;;;;;-140.72;100.00;52358.41;5077121;28;19960;-83
2022/06/27 11:16:50;;;;;;;;;;;;;;;-140.72;100.00;52356.38;5079244;28;19983;-83
2022/06/27 11:22:17;;;;;;;;;;;;;;;-140.72;100.00;52368.53;5079317;28;19943;-83
2022/06/27 11:24:45;;;;;;;;;;;;;;;-140.72;100.00;52368.53;5078655;28;19916;-83
2022/06/27 11:27:10;;;;;;;;;;;;;;;-140.72;100.00;52358.41;5081170;28;19924;-84
2022/06/27 11:32:19;;;;;;;;;;;;;;;-140.72;100.00;52394.91;5075662;28;19969;-83
2022/06/27 11:34:48;;;;;;;;;;;;;;;-140.72;100.00;52366.50;5074530;28;20308;-83
2022/06/27 11:37:14;;;;;;;;;;;;;;;-140.72;100.00;52384.78;5079037;28;19917;-83
2022/06/27 11:39:40;;;;;;;;;;;;;;;-140.72;100.00;52407.09;5078935;28;20415;-83
2022/06/27 11:42:12;;;;;;;;;;;;;;;-140.72;100.00;52421.28;5080482;28;20061;-83
2022/06/27 11:44:38;;;;;;;;;;;;;;;-140.72;100.00;52386.81;5077331;28;19931;-83
2022/06/27 11:47:07;;;;;;;;;;;;;;;-140.72;100.00;52431.44;5080461;28;19917;-83
2022/06/27 11:49:34;;;;;;;;;;;;;;;-140.72;100.00;52423.31;5077002;28;19986;-83
2022/06/27 11:52:04;;;;;;;;;;;;;;;-140.72;100.00;52407.09;5075221;28;19916;-83
2022/06/27 11:54:37;;;;;;;;;;;;;;;-140.72;100.00;52429.41;5077636;28;19924;-83
2022/06/27 11:57:02;;;;;;;;;;;;;;;-140.72;100.00;52415.22;5079866;28;19920;-83
2022/06/27 11:59:28;;;;;;;;;;;;;;;-140.72;100.00;52425.34;5076151;28;19923;-83
2022/06/27 12:02:01;;;;;;;;;;;;;;;-140.72;100.00;52394.91;5081318;28;19924;-84
2022/06/27 12:04:26;;;;;;;;;;;;;;;-140.72;100.00;52360.44;5080224;28;19969;-83
2022/06/27 12:06:56;;;;;;;;;;;;;;;-140.72;100.00;52415.22;5089112;28;19916;-84
2022/06/27 12:09:25;;;;;;;;;;;;;;;-140.72;100.00;52407.09;5095249;28;19936;-83
2022/06/27 12:11:53;;;;;;;;;;;;;;;-140.72;100.00;52443.63;5089574;28;19923;-83
2022/06/27 12:14:19;;;;;;;;;;;;;;;-140.72;100.00;52480.16;5075470;28;19966;-84
2022/06/27 12:16:45;;;;;;;;;;;;;;;-140.72;100.00;52433.47;5081359;28;19920;-84
2022/06/27 12:19:11;;;;;;;;;;;;;;;-140.72;100.00;52467.97;5083295;28;19940;-84
2022/06/27 12:21:36;;;;;;;;;;;;;;;-140.72;100.00;52498.41;5076934;28;19924;-82
2022/06/27 12:24:02;;;;;;;;;;;;;;;-140.72;100.00;52457.81;5075688;28;19935;-84